Weather at Falcon Field

Public forecast

Using degrees Fahrenheit for public forecast. Weather courtesy of forecast.io.

Current aviation weather report (METAR) for Falcon Field

Retrieved 2020/12/04 21:54 UTC (40 minutes ago):

KFFZ 042154Z 27004KT 10SM CLR 18/M15 A3012 RMK AO2 SLP188 T01781150

Closest aviation forecast (TAF) to Falcon Field

Closest forecast is Phoenix-Mesa-Gateway Airport, 9.9 nm (18.3 km) SSE. Retrieved 2020/12/04 18:22 UTC (4 hours ago):

TAF KIWA 041720Z 0418/0518 13004KT P6SM SKC FM042000 29005KT P6SM SKC FM050300 12005KT P6SM SKC